Stoutsville, Missouri
Current Conditions -  °F | °C
As of 9:55 PM on Tuesday 27 Jan 2015 (Local Time) from KHAE Reporting Station
Clear Clear  
Wind Chill: -4°   Ceiling: Unl
Heat Index:   Visibility: 7mi
Dew Point: -2°   Wind: 7mph
Humidity: 87%   Direction: 120°ESE
Pressure: 30.2"   Gusts: NA
Location:  39.55°N, 91.86°W
Report Text: KHAE 280355Z AUTO 12006KT 7SM CLR 00/M02 A3020 RMK AO2
Loading
Personal Weather Stations






























Interactive Weather Map New forecast layout! Learn more

10-Day Weather Forecast

Advertisements
Track Severe Weather on mobile